sensor_id;sensor_type;location;lat;lon;timestamp;pressure;altitude;pressure_sealevel;temperature;humidity
14242;BME280;7205;50.864;12.766;2023-08-07T00:00:13;96684.38;;;15.04;100.00
14242;BME280;7205;50.864;12.766;2023-08-07T00:02:40;96694.78;;;15.06;100.00
14242;BME280;7205;50.864;12.766;2023-08-07T00:05:07;96691.06;;;15.07;100.00
14242;BME280;7205;50.864;12.766;2023-08-07T00:07:34;96696.63;;;15.05;100.00
14242;BME280;7205;50.864;12.766;2023-08-07T00:10:02;96681.50;;;15.06;100.00
14242;BME280;7205;50.864;12.766;2023-08-07T00:12:29;96687.28;;;15.03;100.00
14242;BME280;7205;50.864;12.766;2023-08-07T00:14:56;96685.44;;;15.03;100.00
14242;BME280;7205;50.864;12.766;2023-08-07T00:17:23;96679.28;;;15.03;100.00
14242;BME280;7205;50.864;12.766;2023-08-07T00:19:50;96673.84;;;14.98;100.00
14242;BME280;7205;50.864;12.766;2023-08-07T00:22:17;96681.13;;;15.02;100.00
14242;BME280;7205;50.864;12.766;2023-08-07T00:24:43;96680.31;;;15.02;100.00
14242;BME280;7205;50.864;12.766;2023-08-07T00:27:12;96670.50;;;15.02;100.00
14242;BME280;7205;50.864;12.766;2023-08-07T00:29:39;96690.38;;;15.00;100.00
14242;BME280;7205;50.864;12.766;2023-08-07T00:32:07;96685.31;;;14.98;100.00
14242;BME280;7205;50.864;12.766;2023-08-07T00:34:34;96684.25;;;14.99;100.00
14242;BME280;7205;50.864;12.766;2023-08-07T00:37:01;96683.06;;;14.95;100.00
14242;BME280;7205;50.864;12.766;2023-08-07T00:39:27;96683.88;;;14.96;100.00
14242;BME280;7205;50.864;12.766;2023-08-07T00:41:54;96685.31;;;14.98;100.00
14242;BME280;7205;50.864;12.766;2023-08-07T00:44:23;96680.78;;;14.99;100.00
14242;BME280;7205;50.864;12.766;2023-08-07T00:46:50;96683.19;;;15.00;100.00
14242;BME280;7205;50.864;12.766;2023-08-07T00:49:18;96689.56;;;14.99;100.00
14242;BME280;7205;50.864;12.766;2023-08-07T00:51:46;96686.09;;;14.99;100.00
14242;BME280;7205;50.864;12.766;2023-08-07T00:54:15;96683.44;;;14.99;100.00
14242;BME280;7205;50.864;12.766;2023-08-07T00:56:42;96683.19;;;15.00;100.00
14242;BME280;7205;50.864;12.766;2023-08-07T00:59:10;96676.28;;;14.99;100.00
14242;BME280;7205;50.864;12.766;2023-08-07T01:01:38;96673.38;;;15.01;100.00
14242;BME280;7205;50.864;12.766;2023-08-07T01:04:05;96688.50;;;15.00;100.00
14242;BME280;7205;50.864;12.766;2023-08-07T01:06:32;96686.69;;;15.01;100.00
14242;BME280;7205;50.864;12.766;2023-08-07T01:08:59;96685.44;;;15.03;100.00
14242;BME280;7205;50.864;12.766;2023-08-07T01:11:33;96684.59;;;15.03;100.00
14242;BME280;7205;50.864;12.766;2023-08-07T01:14:07;96685.06;;;15.00;100.00
14242;BME280;7205;50.864;12.766;2023-08-07T01:16:40;96682.41;;;15.00;100.00
14242;BME280;7205;50.864;12.766;2023-08-07T01:19:14;96686.31;;;14.97;100.00
14242;BME280;7205;50.864;12.766;2023-08-07T01:21:48;96694.84;;;14.88;100.00
14242;BME280;7205;50.864;12.766;2023-08-07T01:24:15;96690.69;;;14.92;100.00
14242;BME280;7205;50.864;12.766;2023-08-07T01:26:42;96686.41;;;14.91;100.00
14242;BME280;7205;50.864;12.766;2023-08-07T01:29:14;96685.59;;;14.90;100.00
14242;BME280;7205;50.864;12.766;2023-08-07T01:31:44;96692.53;;;14.91;100.00
14242;BME280;7205;50.864;12.766;2023-08-07T01:34:14;96685.22;;;14.87;100.00
14242;BME280;7205;50.864;12.766;2023-08-07T01:36:46;96686.72;;;14.83;100.00
14242;BME280;7205;50.864;12.766;2023-08-07T01:39:14;96689.97;;;14.85;100.00
14242;BME280;7205;50.864;12.766;2023-08-07T01:41:44;96690.78;;;14.85;100.00
14242;BME280;7205;50.864;12.766;2023-08-07T01:44:12;96680.81;;;14.81;100.00
14242;BME280;7205;50.864;12.766;2023-08-07T01:46:39;96690.88;;;14.79;100.00
14242;BME280;7205;50.864;12.766;2023-08-07T01:49:05;96695.38;;;14.78;100.00
14242;BME280;7205;50.864;12.766;2023-08-07T01:51:32;96683.56;;;14.74;100.00
14242;BME280;7205;50.864;12.766;2023-08-07T01:54:00;96687.03;;;14.75;100.00
14242;BME280;7205;50.864;12.766;2023-08-07T01:56:27;96689.84;;;14.80;100.00
14242;BME280;7205;50.864;12.766;2023-08-07T01:58:54;96695.16;;;14.80;100.00
14242;BME280;7205;50.864;12.766;2023-08-07T02:01:21;96696.19;;;14.79;100.00
14242;BME280;7205;50.864;12.766;2023-08-07T02:03:48;96708.44;;;14.80;100.00
14242;BME280;7205;50.864;12.766;2023-08-07T02:06:15;96709.69;;;14.77;100.00
14242;BME280;7205;50.864;12.766;2023-08-07T02:08:41;96700.75;;;14.72;100.00
14242;BME280;7205;50.864;12.766;2023-08-07T02:11:10;96705.88;;;14.73;100.00
14242;BME280;7205;50.864;12.766;2023-08-07T02:13:36;96696.84;;;14.74;100.00
14242;BME280;7205;50.864;12.766;2023-08-07T02:16:04;96702.19;;;14.74;100.00
14242;BME280;7205;50.864;12.766;2023-08-07T02:18:30;96703.66;;;14.70;100.00
14242;BME280;7205;50.864;12.766;2023-08-07T02:20:57;96702.84;;;14.70;100.00
14242;BME280;7205;50.864;12.766;2023-08-07T02:23:24;96701.81;;;14.71;100.00
14242;BME280;7205;50.864;12.766;2023-08-07T02:25:53;96711.38;;;14.72;100.00
14242;BME280;7205;50.864;12.766;2023-08-07T02:28:22;96711.63;;;14.70;100.00
14242;BME280;7205;50.864;12.766;2023-08-07T02:30:48;96721.44;;;14.70;100.00
14242;BME280;7205;50.864;12.766;2023-08-07T02:33:16;96715.09;;;14.71;100.00
14242;BME280;7205;50.864;12.766;2023-08-07T02:35:43;96715.31;;;14.69;100.00
14242;BME280;7205;50.864;12.766;2023-08-07T02:38:11;96711.97;;;14.74;100.00
14242;BME280;7205;50.864;12.766;2023-08-07T02:40:37;96723.22;;;14.76;100.00
14242;BME280;7205;50.864;12.766;2023-08-07T02:43:04;96725.28;;;14.74;100.00
14242;BME280;7205;50.864;12.766;2023-08-07T02:45:33;96715.69;;;14.73;100.00
14242;BME280;7205;50.864;12.766;2023-08-07T02:48:00;96726.22;;;14.79;100.00
14242;BME280;7205;50.864;12.766;2023-08-07T02:50:27;96733.16;;;14.80;100.00
14242;BME280;7205;50.864;12.766;2023-08-07T02:52:57;96728.88;;;14.79;100.00
14242;BME280;7205;50.864;12.766;2023-08-07T02:55:24;96729.34;;;14.76;100.00
14242;BME280;7205;50.864;12.766;2023-08-07T02:57:51;96732.22;;;14.75;100.00
14242;BME280;7205;50.864;12.766;2023-08-07T03:00:18;96735.53;;;14.70;100.00
14242;BME280;7205;50.864;12.766;2023-08-07T03:02:46;96728.00;;;14.67;100.00
14242;BME280;7205;50.864;12.766;2023-08-07T03:05:13;96736.22;;;14.66;100.00
14242;BME280;7205;50.864;12.766;2023-08-07T03:07:40;96733.78;;;14.64;100.00
14242;BME280;7205;50.864;12.766;2023-08-07T03:10:07;96723.59;;;14.61;100.00
14242;BME280;7205;50.864;12.766;2023-08-07T03:12:34;96737.47;;;14.63;100.00
14242;BME280;7205;50.864;12.766;2023-08-07T03:15:01;96746.03;;;14.65;100.00
14242;BME280;7205;50.864;12.766;2023-08-07T03:17:28;96742.13;;;14.68;100.00
14242;BME280;7205;50.864;12.766;2023-08-07T03:19:56;96745.78;;;14.67;100.00
14242;BME280;7205;50.864;12.766;2023-08-07T03:22:23;96751.34;;;14.65;100.00
14242;BME280;7205;50.864;12.766;2023-08-07T03:24:50;96746.47;;;14.62;100.00
14242;BME280;7205;50.864;12.766;2023-08-07T03:27:16;96749.94;;;14.63;100.00
14242;BME280;7205;50.864;12.766;2023-08-07T03:29:43;96750.09;;;14.68;100.00
14242;BME280;7205;50.864;12.766;2023-08-07T03:32:10;96756.66;;;14.65;100.00
14242;BME280;7205;50.864;12.766;2023-08-07T03:34:37;96767.28;;;14.65;100.00
14242;BME280;7205;50.864;12.766;2023-08-07T03:37:07;96774.81;;;14.68;100.00
14242;BME280;7205;50.864;12.766;2023-08-07T03:39:34;96769.06;;;14.71;100.00
14242;BME280;7205;50.864;12.766;2023-08-07T03:42:00;96776.22;;;14.71;100.00
14242;BME280;7205;50.864;12.766;2023-08-07T03:44:28;96777.03;;;14.71;100.00
14242;BME280;7205;50.864;12.766;2023-08-07T03:46:55;96782.94;;;14.73;100.00
14242;BME280;7205;50.864;12.766;2023-08-07T03:49:23;96781.09;;;14.74;100.00
14242;BME280;7205;50.864;12.766;2023-08-07T03:51:52;96779.25;;;14.74;100.00
14242;BME280;7205;50.864;12.766;2023-08-07T03:54:20;96785.38;;;14.75;100.00
14242;BME280;7205;50.864;12.766;2023-08-07T03:56:48;96779.84;;;14.76;100.00
14242;BME280;7205;50.864;12.766;2023-08-07T03:59:17;96784.09;;;14.77;100.00
14242;BME280;7205;50.864;12.766;2023-08-07T04:01:44;96789.19;;;14.79;100.00
14242;BME280;7205;50.864;12.766;2023-08-07T04:04:11;96787.59;;;14.78;100.00
14242;BME280;7205;50.864;12.766;2023-08-07T04:06:38;96787.13;;;14.81;100.00
14242;BME280;7205;50.864;12.766;2023-08-07T04:09:05;96800.19;;;14.82;100.00
14242;BME280;7205;50.864;12.766;2023-08-07T04:11:34;96793.88;;;14.83;100.00
14242;BME280;7205;50.864;12.766;2023-08-07T04:14:02;96799.38;;;14.82;100.00
14242;BME280;7205;50.864;12.766;2023-08-07T04:16:29;96802.63;;;14.84;100.00
14242;BME280;7205;50.864;12.766;2023-08-07T04:18:56;96796.31;;;14.85;100.00
14242;BME280;7205;50.864;12.766;2023-08-07T04:21:23;96815.91;;;14.84;100.00
14242;BME280;7205;50.864;12.766;2023-08-07T04:23:50;96815.13;;;14.83;100.00
14242;BME280;7205;50.864;12.766;2023-08-07T04:26:17;96800.78;;;14.84;100.00
14242;BME280;7205;50.864;12.766;2023-08-07T04:28:45;96812.09;;;14.80;100.00
14242;BME280;7205;50.864;12.766;2023-08-07T04:31:12;96815.13;;;14.83;100.00
14242;BME280;7205;50.864;12.766;2023-08-07T04:33:39;96804.91;;;14.80;100.00
14242;BME280;7205;50.864;12.766;2023-08-07T04:36:06;96821.53;;;14.76;100.00
14242;BME280;7205;50.864;12.766;2023-08-07T04:38:32;96822.97;;;14.78;100.00
14242;BME280;7205;50.864;12.766;2023-08-07T04:40:59;96820.94;;;14.74;100.00
14242;BME280;7205;50.864;12.766;2023-08-07T04:43:26;96837.25;;;14.77;100.00
14242;BME280;7205;50.864;12.766;2023-08-07T04:45:54;96829.50;;;14.76;100.00
14242;BME280;7205;50.864;12.766;2023-08-07T04:48:21;96831.56;;;14.74;100.00
14242;BME280;7205;50.864;12.766;2023-08-07T04:50:50;96835.88;;;14.75;100.00
14242;BME280;7205;50.864;12.766;2023-08-07T04:53:17;96832.78;;;14.78;100.00
14242;BME280;7205;50.864;12.766;2023-08-07T04:55:44;96826.25;;;14.74;100.00
14242;BME280;7205;50.864;12.766;2023-08-07T04:58:11;96822.00;;;14.73;100.00
14242;BME280;7205;50.864;12.766;2023-08-07T05:00:38;96833.63;;;14.72;100.00
14242;BME280;7205;50.864;12.766;2023-08-07T05:03:06;96844.84;;;14.74;100.00
14242;BME280;7205;50.864;12.766;2023-08-07T05:05:32;96835.50;;;14.71;100.00
14242;BME280;7205;50.864;12.766;2023-08-07T05:07:59;96836.50;;;14.70;100.00
14242;BME280;7205;50.864;12.766;2023-08-07T05:10:26;96837.13;;;14.72;100.00
14242;BME280;7205;50.864;12.766;2023-08-07T05:12:53;96837.50;;;14.76;100.00
14242;BME280;7205;50.864;12.766;2023-08-07T05:15:21;96842.34;;;14.79;100.00
14242;BME280;7205;50.864;12.766;2023-08-07T05:17:48;96833.00;;;14.76;100.00
14242;BME280;7205;50.864;12.766;2023-08-07T05:20:16;96838.53;;;14.75;100.00
14242;BME280;7205;50.864;12.766;2023-08-07T05:22:43;96840.16;;;14.76;100.00
14242;BME280;7205;50.864;12.766;2023-08-07T05:25:10;96839.31;;;14.75;100.00
14242;BME280;7205;50.864;12.766;2023-08-07T05:27:41;96839.31;;;14.75;100.00
14242;BME280;7205;50.864;12.766;2023-08-07T05:30:08;96851.16;;;14.79;100.00
14242;BME280;7205;50.864;12.766;2023-08-07T05:32:35;96839.69;;;14.79;100.00
14242;BME280;7205;50.864;12.766;2023-08-07T05:35:03;96850.69;;;14.82;100.00
14242;BME280;7205;50.864;12.766;2023-08-07T05:37:32;96860.88;;;14.85;100.00
14242;BME280;7205;50.864;12.766;2023-08-07T05:39:59;96854.19;;;14.83;100.00
14242;BME280;7205;50.864;12.766;2023-08-07T05:42:26;96844.78;;;14.80;100.00
14242;BME280;7205;50.864;12.766;2023-08-07T05:44:52;96850.09;;;14.80;100.00
14242;BME280;7205;50.864;12.766;2023-08-07T05:47:19;96844.22;;;14.78;100.00
14242;BME280;7205;50.864;12.766;2023-08-07T05:49:46;96857.84;;;14.82;100.00
14242;BME280;7205;50.864;12.766;2023-08-07T05:52:14;96858.00;;;14.87;100.00
14242;BME280;7205;50.864;12.766;2023-08-07T05:54:42;96858.38;;;14.90;100.00
14242;BME280;7205;50.864;12.766;2023-08-07T05:57:09;96868.22;;;14.90;100.00
14242;BME280;7205;50.864;12.766;2023-08-07T05:59:36;96866.34;;;14.90;100.00
14242;BME280;7205;50.864;12.766;2023-08-07T06:02:06;96861.78;;;14.79;100.00
14242;BME280;7205;50.864;12.766;2023-08-07T06:04:32;96873.50;;;14.72;100.00
14242;BME280;7205;50.864;12.766;2023-08-07T06:06:59;96871.56;;;14.61;100.00
14242;BME280;7205;50.864;12.766;2023-08-07T06:09:26;96880.38;;;14.61;100.00
14242;BME280;7205;50.864;12.766;2023-08-07T06:11:54;96887.16;;;14.75;100.00
14242;BME280;7205;50.864;12.766;2023-08-07T06:14:21;96896.25;;;14.86;100.00
14242;BME280;7205;50.864;12.766;2023-08-07T06:16:50;96900.69;;;14.92;100.00
14242;BME280;7205;50.864;12.766;2023-08-07T06:19:17;96912.75;;;14.94;100.00
14242;BME280;7205;50.864;12.766;2023-08-07T06:21:45;96897.84;;;14.93;100.00
14242;BME280;7205;50.864;12.766;2023-08-07T06:24:12;96909.72;;;14.91;100.00
14242;BME280;7205;50.864;12.766;2023-08-07T06:26:39;96901.81;;;14.84;100.00
14242;BME280;7205;50.864;12.766;2023-08-07T06:29:07;96908.31;;;14.88;100.00
14242;BME280;7205;50.864;12.766;2023-08-07T06:31:34;96908.63;;;14.98;100.00
14242;BME280;7205;50.864;12.766;2023-08-07T06:34:01;96908.41;;;15.00;100.00
14242;BME280;7205;50.864;12.766;2023-08-07T06:36:28;96905.06;;;15.04;100.00
14242;BME280;7205;50.864;12.766;2023-08-07T06:38:55;96905.06;;;15.04;100.00
14242;BME280;7205;50.864;12.766;2023-08-07T06:41:21;96918.88;;;15.13;100.00
14242;BME280;7205;50.864;12.766;2023-08-07T06:43:48;96908.03;;;15.15;100.00
14242;BME280;7205;50.864;12.766;2023-08-07T06:46:18;96911.66;;;15.20;100.00
14242;BME280;7205;50.864;12.766;2023-08-07T06:48:49;96907.72;;;15.23;100.00
14242;BME280;7205;50.864;12.766;2023-08-07T06:51:16;96909.28;;;15.30;100.00
14242;BME280;7205;50.864;12.766;2023-08-07T06:53:43;96915.19;;;15.32;100.00
14242;BME280;7205;50.864;12.766;2023-08-07T06:56:10;96921.28;;;15.39;100.00
14242;BME280;7205;50.864;12.766;2023-08-07T06:58:36;96919.81;;;15.43;100.00
14242;BME280;7205;50.864;12.766;2023-08-07T07:01:03;96913.47;;;15.38;100.00
14242;BME280;7205;50.864;12.766;2023-08-07T07:03:31;96923.50;;;15.42;100.00
14242;BME280;7205;50.864;12.766;2023-08-07T07:05:58;96926.47;;;15.52;100.00
14242;BME280;7205;50.864;12.766;2023-08-07T07:08:25;96929.81;;;15.59;100.00
14242;BME280;7205;50.864;12.766;2023-08-07T07:10:51;96936.19;;;15.58;100.00
14242;BME280;7205;50.864;12.766;2023-08-07T07:13:18;96945.00;;;15.59;100.00
14242;BME280;7205;50.864;12.766;2023-08-07T07:15:45;96929.59;;;15.61;100.00
14242;BME280;7205;50.864;12.766;2023-08-07T07:18:12;96928.13;;;15.65;100.00
14242;BME280;7205;50.864;12.766;2023-08-07T07:20:40;96930.34;;;15.68;100.00
14242;BME280;7205;50.864;12.766;2023-08-07T07:23:07;96931.47;;;15.60;100.00
14242;BME280;7205;50.864;12.766;2023-08-07T07:25:34;96942.03;;;15.67;100.00
14242;BME280;7205;50.864;12.766;2023-08-07T07:28:00;96939.97;;;15.69;100.00
14242;BME280;7205;50.864;12.766;2023-08-07T07:30:27;96939.59;;;15.65;100.00
14242;BME280;7205;50.864;12.766;2023-08-07T07:32:54;96946.06;;;15.69;100.00
14242;BME280;7205;50.864;12.766;2023-08-07T07:35:21;96946.22;;;15.74;100.00
14242;BME280;7205;50.864;12.766;2023-08-07T07:37:49;96950.44;;;15.82;100.00
14242;BME280;7205;50.864;12.766;2023-08-07T07:40:16;96961.59;;;15.90;100.00
14242;BME280;7205;50.864;12.766;2023-08-07T07:42:42;96962.09;;;15.99;100.00
14242;BME280;7205;50.864;12.766;2023-08-07T07:45:09;96957.13;;;16.02;100.00
14242;BME280;7205;50.864;12.766;2023-08-07T07:47:36;96960.13;;;16.06;100.00
14242;BME280;7205;50.864;12.766;2023-08-07T07:50:07;96953.78;;;16.07;100.00
14242;BME280;7205;50.864;12.766;2023-08-07T07:52:34;96960.50;;;16.09;100.00
14242;BME280;7205;50.864;12.766;2023-08-07T07:55:03;96963.53;;;16.13;100.00
14242;BME280;7205;50.864;12.766;2023-08-07T07:57:30;96960.97;;;16.18;100.00
14242;BME280;7205;50.864;12.766;2023-08-07T07:59:57;96967.97;;;16.19;100.00
14242;BME280;7205;50.864;12.766;2023-08-07T08:02:24;96961.13;;;16.23;100.00
14242;BME280;7205;50.864;12.766;2023-08-07T08:04:51;96963.41;;;16.19;100.00
14242;BME280;7205;50.864;12.766;2023-08-07T08:07:18;96965.72;;;16.16;100.00
14242;BME280;7205;50.864;12.766;2023-08-07T08:09:45;96969.66;;;16.13;100.00
14242;BME280;7205;50.864;12.766;2023-08-07T08:12:13;96964.69;;;16.17;100.00
14242;BME280;7205;50.864;12.766;2023-08-07T08:14:40;96965.06;;;16.20;100.00
14242;BME280;7205;50.864;12.766;2023-08-07T08:17:07;96975.84;;;16.25;100.00
14242;BME280;7205;50.864;12.766;2023-08-07T08:19:34;96970.88;;;16.29;100.00
14242;BME280;7205;50.864;12.766;2023-08-07T08:22:01;96968.59;;;16.33;100.00
14242;BME280;7205;50.864;12.766;2023-08-07T08:24:28;96972.03;;;16.33;100.00
14242;BME280;7205;50.864;12.766;2023-08-07T08:26:54;96971.44;;;16.31;100.00
14242;BME280;7205;50.864;12.766;2023-08-07T08:29:23;96972.13;;;16.26;100.00
14242;BME280;7205;50.864;12.766;2023-08-07T08:31:49;96976.75;;;16.19;100.00
14242;BME280;7205;50.864;12.766;2023-08-07T08:34:18;96968.47;;;16.09;100.00
14242;BME280;7205;50.864;12.766;2023-08-07T08:36:45;96980.06;;;16.03;100.00
14242;BME280;7205;50.864;12.766;2023-08-07T08:39:12;96979.91;;;15.98;100.00
14242;BME280;7205;50.864;12.766;2023-08-07T08:41:39;96985.09;;;15.93;100.00
14242;BME280;7205;50.864;12.766;2023-08-07T08:44:06;96986.56;;;15.89;100.00
14242;BME280;7205;50.864;12.766;2023-08-07T08:46:36;96993.63;;;15.84;100.00
14242;BME280;7205;50.864;12.766;2023-08-07T08:49:05;96994.88;;;15.81;100.00
14242;BME280;7205;50.864;12.766;2023-08-07T08:51:34;96995.78;;;15.75;100.00
14242;BME280;7205;50.864;12.766;2023-08-07T08:54:01;97003.63;;;15.70;100.00
14242;BME280;7205;50.864;12.766;2023-08-07T08:56:29;96997.69;;;15.68;100.00
14242;BME280;7205;50.864;12.766;2023-08-07T08:58:57;97008.56;;;15.67;100.00
14242;BME280;7205;50.864;12.766;2023-08-07T09:01:24;97011.00;;;15.68;100.00
14242;BME280;7205;50.864;12.766;2023-08-07T09:03:53;97013.13;;;15.78;100.00
14242;BME280;7205;50.864;12.766;2023-08-07T09:06:20;97015.63;;;15.91;100.00
14242;BME280;7205;50.864;12.766;2023-08-07T09:08:47;97031.69;;;16.02;100.00
14242;BME280;7205;50.864;12.766;2023-08-07T09:11:15;97023.16;;;16.12;100.00
14242;BME280;7205;50.864;12.766;2023-08-07T09:13:44;97016.41;;;16.27;100.00
14242;BME280;7205;50.864;12.766;2023-08-07T09:16:14;97025.16;;;16.46;100.00
14242;BME280;7205;50.864;12.766;2023-08-07T09:18:42;97033.13;;;16.64;100.00
14242;BME280;7205;50.864;12.766;2023-08-07T09:21:11;97024.22;;;16.82;100.00
14242;BME280;7205;50.864;12.766;2023-08-07T09:23:41;97017.06;;;16.94;100.00
14242;BME280;7205;50.864;12.766;2023-08-07T09:26:10;97018.56;;;17.01;100.00
14242;BME280;7205;50.864;12.766;2023-08-07T09:28:37;97024.38;;;17.10;100.00
14242;BME280;7205;50.864;12.766;2023-08-07T09:31:06;97014.41;;;17.17;100.00
14242;BME280;7205;50.864;12.766;2023-08-07T09:33:34;97018.25;;;17.21;100.00
14242;BME280;7205;50.864;12.766;2023-08-07T09:36:02;97028.69;;;17.22;100.00
14242;BME280;7205;50.864;12.766;2023-08-07T09:38:31;97014.06;;;17.25;100.00
14242;BME280;7205;50.864;12.766;2023-08-07T09:40:58;97029.81;;;17.26;100.00
14242;BME280;7205;50.864;12.766;2023-08-07T09:43:25;97022.06;;;17.25;100.00
14242;BME280;7205;50.864;12.766;2023-08-07T09:45:52;97032.97;;;17.23;100.00
14242;BME280;7205;50.864;12.766;2023-08-07T09:48:23;97021.50;;;17.23;100.00
14242;BME280;7205;50.864;12.766;2023-08-07T09:50:50;97022.28;;;17.35;100.00
14242;BME280;7205;50.864;12.766;2023-08-07T09:53:17;97024.75;;;17.60;100.00
14242;BME280;7205;50.864;12.766;2023-08-07T09:55:45;97025.44;;;17.78;100.00
14242;BME280;7205;50.864;12.766;2023-08-07T09:58:12;97008.69;;;17.83;99.23
14242;BME280;7205;50.864;12.766;2023-08-07T10:00:40;97016.81;;;17.88;98.74
14242;BME280;7205;50.864;12.766;2023-08-07T10:03:08;97018.03;;;17.97;98.06
14242;BME280;7205;50.864;12.766;2023-08-07T10:05:35;97016.88;;;18.04;97.88
14242;BME280;7205;50.864;12.766;2023-08-07T10:08:02;97017.66;;;18.16;97.48
14242;BME280;7205;50.864;12.766;2023-08-07T10:10:31;97019.56;;;18.32;96.59
14242;BME280;7205;50.864;12.766;2023-08-07T10:13:00;97012.09;;;18.46;94.15
14242;BME280;7205;50.864;12.766;2023-08-07T10:15:28;97006.44;;;18.59;91.61
14242;BME280;7205;50.864;12.766;2023-08-07T10:17:55;97001.25;;;18.69;89.44
14242;BME280;7205;50.864;12.766;2023-08-07T10:20:24;97006.84;;;18.67;87.34
14242;BME280;7205;50.864;12.766;2023-08-07T10:22:53;97002.31;;;18.68;87.96
14242;BME280;7205;50.864;12.766;2023-08-07T10:25:22;97000.56;;;18.73;87.36
14242;BME280;7205;50.864;12.766;2023-08-07T10:27:51;96999.00;;;18.77;87.09
14242;BME280;7205;50.864;12.766;2023-08-07T10:30:20;96998.28;;;18.82;86.94
14242;BME280;7205;50.864;12.766;2023-08-07T10:32:48;97002.50;;;18.78;86.37
14242;BME280;7205;50.864;12.766;2023-08-07T10:35:23;97003.38;;;18.67;86.79
14242;BME280;7205;50.864;12.766;2023-08-07T10:37:51;97004.25;;;18.56;86.91
14242;BME280;7205;50.864;12.766;2023-08-07T10:40:19;96995.59;;;18.37;86.92
14242;BME280;7205;50.864;12.766;2023-08-07T10:43:12;97017.78;;;18.10;87.60
14242;BME280;7205;50.864;12.766;2023-08-07T10:45:40;97020.25;;;18.00;90.36
14242;BME280;7205;50.864;12.766;2023-08-07T10:48:08;97008.56;;;17.89;91.06
14242;BME280;7205;50.864;12.766;2023-08-07T10:50:49;97024.16;;;17.69;91.12
14242;BME280;7205;50.864;12.766;2023-08-07T10:53:19;97009.56;;;17.48;92.12
14242;BME280;7205;50.864;12.766;2023-08-07T10:55:47;97021.13;;;17.42;95.35
14242;BME280;7205;50.864;12.766;2023-08-07T10:58:24;97028.69;;;17.57;98.69
14242;BME280;7205;50.864;12.766;2023-08-07T11:01:16;97030.88;;;17.83;99.09
14242;BME280;7205;50.864;12.766;2023-08-07T11:03:45;97026.41;;;18.00;97.31
14242;BME280;7205;50.864;12.766;2023-08-07T11:06:12;97014.19;;;18.04;95.71
14242;BME280;7205;50.864;12.766;2023-08-07T11:08:40;97035.47;;;17.99;95.41
14242;BME280;7205;50.864;12.766;2023-08-07T11:11:07;97024.91;;;17.93;95.41
14242;BME280;7205;50.864;12.766;2023-08-07T11:13:34;97029.81;;;17.84;95.71
14242;BME280;7205;50.864;12.766;2023-08-07T11:16:03;97020.41;;;17.93;98.54
14242;BME280;7205;50.864;12.766;2023-08-07T11:18:30;97029.47;;;18.20;100.00
14242;BME280;7205;50.864;12.766;2023-08-07T11:20:57;97022.19;;;18.44;99.00
14242;BME280;7205;50.864;12.766;2023-08-07T11:23:26;97009.59;;;18.56;95.12
14242;BME280;7205;50.864;12.766;2023-08-07T11:25:54;97004.91;;;18.63;92.93
14242;BME280;7205;50.864;12.766;2023-08-07T11:28:22;97011.16;;;18.68;91.02
14242;BME280;7205;50.864;12.766;2023-08-07T11:30:49;97021.03;;;18.68;89.89
14242;BME280;7205;50.864;12.766;2023-08-07T11:33:19;97008.16;;;18.65;87.75
14242;BME280;7205;50.864;12.766;2023-08-07T11:35:46;97020.38;;;18.61;86.50
14242;BME280;7205;50.864;12.766;2023-08-07T11:38:15;97003.38;;;18.67;86.35
14242;BME280;7205;50.864;12.766;2023-08-07T11:40:56;96996.91;;;18.80;84.88
14242;BME280;7205;50.864;12.766;2023-08-07T11:43:23;96996.97;;;19.01;85.10
14242;BME280;7205;50.864;12.766;2023-08-07T11:45:50;96998.53;;;19.30;83.78
14242;BME280;7205;50.864;12.766;2023-08-07T11:48:18;96986.16;;;19.46;80.42
14242;BME280;7205;50.864;12.766;2023-08-07T11:50:45;96976.81;;;19.48;78.06
14242;BME280;7205;50.864;12.766;2023-08-07T11:53:12;96987.91;;;19.35;75.60
14242;BME280;7205;50.864;12.766;2023-08-07T11:55:46;97010.84;;;18.98;74.33
14242;BME280;7205;50.864;12.766;2023-08-07T11:58:13;97014.31;;;18.37;75.74
14242;BME280;7205;50.864;12.766;2023-08-07T12:00:43;97024.59;;;17.78;79.18
14242;BME280;7205;50.864;12.766;2023-08-07T12:03:24;97035.41;;;17.36;85.01
14242;BME280;7205;50.864;12.766;2023-08-07T12:05:52;97029.63;;;17.28;89.79
14242;BME280;7205;50.864;12.766;2023-08-07T12:08:19;97029.84;;;17.38;93.62
14242;BME280;7205;50.864;12.766;2023-08-07T12:10:49;97031.59;;;17.56;95.34
14242;BME280;7205;50.864;12.766;2023-08-07T12:13:19;97030.28;;;17.81;95.36
14242;BME280;7205;50.864;12.766;2023-08-07T12:15:50;97069.94;;;18.12;94.71
14242;BME280;7205;50.864;12.766;2023-08-07T12:18:18;97045.47;;;18.43;91.82
14242;BME280;7205;50.864;12.766;2023-08-07T12:20:46;97017.38;;;18.74;89.91
14242;BME280;7205;50.864;12.766;2023-08-07T12:23:16;97020.75;;;18.98;87.35
14242;BME280;7205;50.864;12.766;2023-08-07T12:25:44;97008.66;;;19.12;85.92
14242;BME280;7205;50.864;12.766;2023-08-07T12:28:11;97028.13;;;19.24;84.33
14242;BME280;7205;50.864;12.766;2023-08-07T12:30:38;97019.44;;;19.17;80.65
14242;BME280;7205;50.864;12.766;2023-08-07T12:33:05;97017.47;;;18.96;79.15
14242;BME280;7205;50.864;12.766;2023-08-07T12:35:33;97034.59;;;18.78;79.94
14242;BME280;7205;50.864;12.766;2023-08-07T12:38:01;97030.69;;;18.69;81.58
14242;BME280;7205;50.864;12.766;2023-08-07T12:40:28;97031.34;;;18.76;83.30
14242;BME280;7205;50.864;12.766;2023-08-07T12:42:55;97023.81;;;18.90;82.11
14242;BME280;7205;50.864;12.766;2023-08-07T12:45:22;97024.31;;;19.03;79.67
14242;BME280;7205;50.864;12.766;2023-08-07T12:47:49;97026.34;;;19.13;78.21
14242;BME280;7205;50.864;12.766;2023-08-07T12:50:16;97031.53;;;19.19;76.85
14242;BME280;7205;50.864;12.766;2023-08-07T12:52:42;97015.69;;;19.18;75.81
14242;BME280;7205;50.864;12.766;2023-08-07T12:55:11;97019.38;;;19.12;74.96